Manitou Springs, Colorado
Current Conditions -  °F | °C
As of 3:56 PM on Friday 19 Dec 2014 (Local Time) from KCWN Reporting Station
Clear Clear  
Wind Chill: -2°   Ceiling: Unl
Heat Index:   Visibility: 10mi
Dew Point: -10°   Wind: 8mph
Humidity: 41%   Direction: 190°S
Pressure: 30.01"   Gusts: NA
Location:  38.86°N, 104.92°W
Report Text: KCWN 192256Z AUTO 19007KT 10SM CLR 02/M10 A3001 RMK AO2 SLP191 T00171104
Loading
Personal Weather Stations






























Interactive Weather Map New forecast layout! Learn more

10-Day Weather Forecast

Advertisements
Track Severe Weather on mobile